Accueil
METAR-TAF:

METAR-TAF

Aéroports :

Aéroport de Charleroi-Bruxelles-Sud

Charleroi, Belgique

latitude: 50-28N, longitude: 004-27E, altitude: 187 m

Observation

Le bulletin a été fait il y a 47 minutes, à 02:20 UTC
Vent 3 kt de nord-est
Température 13°C
Humidité 58%
Pression 1019 hPa
Visibilité 10 km ou plus
pas de nuages en-dessous de 1500 mètres et pas de cumulonimbus.

METAR: EBCI 020220Z AUTO 05003KT CAVOK 13/05 Q1019

Heure: 05:07 (03:07 UTC)

Prévision

Le bulletin a été fait il y a 4 heures et 7 minutes, à 23:00 UTC
Prévision valable du 02 à 00 UTC au 03 à 06 UTC
Vent 5 kt de nord/nord-est
Visibilité 10 km ou plus
pas de nuages en-dessous de 1500 mètres et pas de cumulonimbus.

TAF: EBCI 012300Z 0200/0306 03005KT CAVOK

Observations et prévisions météorologiques de plus de 4000 aéroports (messages METAR et TAF).

Les stations disponibles sont représentées par des disques jaunes et rouges sur la carte.

Passer la souris dessus pour voir le nom de la station.

Cliquer dessus pour voir les observations et prévisions météorologiques.

Pour changer de carte: cliquez sur les boutons verts avec une croix noire pour zoomer, sur le bouton vert avec un tiret pour effectuer un zoom arrière, ou sur les flèches vertes pour les cartes adjacentes.


METAR-TAF: